Time;durP1;ratioP1;P1;durP2;ratioP2;P2;SDS_P1;SDS_P2;PMS_P1;PMS_P2;Temp;Humidity;BMP_temperature;BMP_pressure;BME280_temperature;BME280_humidity;BME280_pressure;Samples;Min_cycle;Max_cycle;Signal;HPM_P1;HPM_P2
2022/05/06 00:01:34;;;;;;;8.23;5.90;;;7.50;99.90;;;;;;7362121;32;20541;-60
2022/05/06 00:05:36;;;;;;;8.90;6.20;;;7.60;99.90;;;;;;7358810;32;20111;-60
2022/05/06 00:09:42;;;;;;;8.45;5.90;;;7.60;99.90;;;;;;7362981;32;20303;-61
2022/05/06 00:13:44;;;;;;;9.65;6.32;;;7.50;99.90;;;;;;7362198;32;20518;-61
2022/05/06 00:17:45;;;;;;;9.95;6.28;;;7.40;99.90;;;;;;7362358;32;20257;-62
2022/05/06 00:21:47;;;;;;;8.88;5.75;;;7.30;99.90;;;;;;7353690;32;20328;-61
2022/05/06 00:25:49;;;;;;;9.77;6.62;;;7.30;99.90;;;;;;7357502;32;20797;-60
2022/05/06 00:29:50;;;;;;;10.48;6.68;;;7.20;99.90;;;;;;7359494;32;20107;-60
2022/05/06 00:33:52;;;;;;;10.93;6.57;;;7.20;99.90;;;;;;7366105;32;20606;-61
2022/05/06 00:37:54;;;;;;;11.57;6.43;;;7.10;99.90;;;;;;7367585;32;20111;-61
2022/05/06 00:41:56;;;;;;;9.40;5.82;;;7.10;99.90;;;;;;7359026;32;20186;-61
2022/05/06 00:45:57;;;;;;;10.10;7.05;;;7.00;99.90;;;;;;7359268;32;20229;-61
2022/05/06 00:50:00;;;;;;;10.65;6.07;;;6.90;99.90;;;;;;7364682;32;20503;-62
2022/05/06 00:54:02;;;;;;;10.93;6.80;;;6.90;99.90;;;;;;7369018;32;20125;-60
2022/05/06 00:58:04;;;;;;;12.10;6.70;;;6.90;99.90;;;;;;7356814;32;20136;-60
2022/05/06 01:02:06;;;;;;;8.80;6.47;;;6.80;99.90;;;;;;7355265;32;20187;-59
2022/05/06 01:06:13;;;;;;;11.73;6.82;;;6.80;99.90;;;;;;7362895;32;20170;-61
2022/05/06 01:10:15;;;;;;;;;;;6.70;99.90;;;;;;7360738;32;20509;-61
2022/05/06 01:14:31;;;;;;;8.63;6.40;;;6.60;99.90;;;;;;7353156;32;20111;-61
2022/05/06 01:18:33;;;;;;;11.63;6.85;;;6.60;99.90;;;;;;7361820;32;20293;-60
2022/05/06 01:22:35;;;;;;;10.00;6.90;;;6.60;99.90;;;;;;7357576;32;20546;-61
2022/05/06 01:27:06;;;;;;;10.52;6.47;;;6.50;99.90;;;;;;7353572;32;20110;-60
2022/05/06 01:31:09;;;;;;;11.95;7.10;;;6.40;99.90;;;;;;7354839;32;20170;-61
2022/05/06 01:35:12;;;;;;;11.52;6.87;;;6.40;99.90;;;;;;7358433;32;20126;-60
2022/05/06 01:39:18;;;;;;;7.55;5.90;;;6.40;99.90;;;;;;7358700;32;20145;-60
2022/05/06 01:43:22;;;;;;;11.43;6.50;;;6.30;99.90;;;;;;7363792;32;20145;-61
2022/05/06 01:47:27;;;;;;;9.93;6.90;;;6.30;99.90;;;;;;7335885;32;20252;-61
2022/05/06 01:51:30;;;;;;;11.55;6.78;;;6.20;99.90;;;;;;7358135;32;20352;-60
2022/05/06 01:55:32;;;;;;;10.75;7.12;;;6.10;99.90;;;;;;7359100;32;20205;-59
2022/05/06 01:59:33;;;;;;;9.25;6.72;;;6.10;99.90;;;;;;7360492;32;20126;-58
2022/05/06 02:07:55;;;;;;;12.50;6.37;;;6.00;99.90;;;;;;7358444;32;20198;-59
2022/05/06 02:11:57;;;;;;;12.35;6.93;;;6.00;99.90;;;;;;7357521;32;20447;-60
2022/05/06 02:15:59;;;;;;;9.10;6.80;;;5.90;99.90;;;;;;7363415;32;20111;-59
2022/05/06 02:20:00;;;;;;;11.93;7.15;;;5.90;99.90;;;;;;7350153;32;20237;-59
2022/05/06 02:24:02;;;;;;;9.07;6.78;;;5.80;99.90;;;;;;7349398;32;20119;-59
2022/05/06 02:28:05;;;;;;;11.93;7.22;;;5.80;99.90;;;;;;7351457;32;20343;-59
2022/05/06 02:36:27;;;;;;;9.57;7.18;;;5.80;99.90;;;;;;7348194;32;20114;-59
2022/05/06 02:40:29;;;;;;;8.00;6.32;;;5.70;99.90;;;;;;7363785;32;20492;-59
2022/05/06 02:44:31;;;;;;;10.65;6.93;;;5.80;99.90;;;;;;7364760;32;20111;-59
2022/05/06 02:48:32;;;;;;;10.23;6.82;;;5.70;99.90;;;;;;7359877;32;20213;-59
2022/05/06 02:52:34;;;;;;;9.38;6.20;;;5.70;99.90;;;;;;7354641;32;20469;-59
2022/05/06 02:56:36;;;;;;;12.95;6.90;;;5.70;99.90;;;;;;7361432;32;20106;-59
2022/05/06 03:00:37;;;;;;;10.93;6.40;;;5.70;99.90;;;;;;7356089;32;20398;-59
2022/05/06 03:04:40;;;;;;;12.37;7.30;;;5.60;99.90;;;;;;7354670;32;20278;-59
2022/05/06 03:08:42;;;;;;;11.93;7.72;;;5.60;99.90;;;;;;7354375;32;20110;-58
2022/05/06 03:12:46;;;;;;;14.48;7.20;;;5.60;99.90;;;;;;7356367;32;20134;-60
2022/05/06 03:16:48;;;;;;;13.10;6.68;;;5.60;99.90;;;;;;7348646;32;20504;-59
2022/05/06 03:20:50;;;;;;;10.77;7.22;;;5.60;99.90;;;;;;7355863;32;20134;-60
2022/05/06 03:24:52;;;;;;;12.27;7.78;;;5.60;99.90;;;;;;7357017;32;20223;-59
2022/05/06 03:28:57;;;;;;;10.45;6.22;;;5.50;99.90;;;;;;7361636;32;20107;-59
2022/05/06 03:32:59;;;;;;;11.23;7.05;;;5.40;99.90;;;;;;7356467;32;20221;-59
2022/05/06 03:37:00;;;;;;;10.60;6.53;;;5.40;99.90;;;;;;7364941;32;20133;-59
2022/05/06 03:41:02;;;;;;;12.45;7.07;;;5.40;99.90;;;;;;7360007;32;20111;-59
2022/05/06 03:45:06;;;;;;;8.85;6.25;;;5.30;99.90;;;;;;7362433;32;20542;-60
2022/05/06 03:49:08;;;;;;;10.85;6.55;;;5.40;99.90;;;;;;7365451;32;20649;-59
2022/05/06 03:53:09;;;;;;;10.30;6.47;;;5.20;99.90;;;;;;7355035;32;20614;-60
2022/05/06 03:57:11;;;;;;;10.88;6.60;;;5.20;99.90;;;;;;7365327;32;20204;-60
2022/05/06 04:01:12;;;;;;;15.52;7.30;;;5.10;99.90;;;;;;7359090;32;20137;-60
2022/05/06 04:05:14;;;;;;;11.55;6.85;;;5.10;99.90;;;;;;7362088;32;20223;-59
2022/05/06 04:09:16;;;;;;;14.00;7.65;;;5.00;99.90;;;;;;7363327;32;20578;-59
2022/05/06 04:13:19;;;;;;;8.30;6.90;;;5.10;99.90;;;;;;7363096;32;20647;-60
2022/05/06 04:17:20;;;;;;;10.75;7.25;;;5.00;99.90;;;;;;7360486;32;20131;-59
2022/05/06 04:25:43;;;;;;;10.40;7.20;;;5.00;99.90;;;;;;7356061;32;20252;-61
2022/05/06 04:29:44;;;;;;;16.35;8.05;;;5.10;99.90;;;;;;7362728;32;20115;-61
2022/05/06 04:33:46;;;;;;;10.93;7.53;;;5.10;99.90;;;;;;7352197;32;20198;-59
2022/05/06 04:37:48;;;;;;;11.88;7.30;;;5.20;99.90;;;;;;7354224;32;20106;-60
2022/05/06 04:41:49;;;;;;;10.48;7.28;;;5.30;99.90;;;;;;7358785;32;20107;-60
2022/05/06 04:45:51;;;;;;;11.70;7.65;;;5.50;99.90;;;;;;7356852;32;20129;-59
2022/05/06 04:49:53;;;;;;;10.88;7.50;;;5.90;99.90;;;;;;7356596;32;20207;-62
2022/05/06 04:53:55;;;;;;;12.32;7.97;;;6.20;99.90;;;;;;7352420;32;20100;-62
2022/05/06 04:57:57;;;;;;;12.15;7.68;;;6.70;99.90;;;;;;7343836;32;20222;-61
2022/05/06 05:01:58;;;;;;;13.05;8.43;;;7.10;99.90;;;;;;7359762;32;20525;-61
2022/05/06 05:06:00;;;;;;;9.45;6.87;;;7.40;99.90;;;;;;7363183;32;20562;-61
2022/05/06 05:10:03;;;;;;;11.15;6.82;;;7.50;99.90;;;;;;7366333;32;20327;-61
2022/05/06 05:14:06;;;;;;;12.43;7.60;;;7.40;99.90;;;;;;7357623;32;20222;-61
2022/05/06 05:18:09;;;;;;;10.02;7.15;;;7.30;99.90;;;;;;7361920;32;20613;-61
2022/05/06 05:22:11;;;;;;;11.68;7.62;;;7.30;99.90;;;;;;7365205;32;21625;-60
2022/05/06 05:26:13;;;;;;;12.30;7.90;;;7.30;99.90;;;;;;7358682;32;20526;-61
2022/05/06 05:30:15;;;;;;;12.65;8.05;;;7.30;99.90;;;;;;7353812;32;20509;-61
2022/05/06 05:34:16;;;;;;;13.95;8.90;;;7.40;99.90;;;;;;7348658;32;20139;-61
2022/05/06 05:38:18;;;;;;;12.48;8.43;;;7.40;99.90;;;;;;7359482;32;20822;-62
2022/05/06 05:42:27;;;;;;;15.73;9.77;;;7.50;99.90;;;;;;7359636;32;20125;-65
2022/05/06 05:50:49;;;;;;;20.65;11.82;;;7.70;99.90;;;;;;7344375;32;20107;-62
2022/05/06 05:54:51;;;;;;;15.90;11.95;;;7.90;99.90;;;;;;7354243;32;20240;-65
2022/05/06 05:58:53;;;;;;;19.30;12.20;;;8.00;99.90;;;;;;7353428;32;20198;-63
2022/05/06 06:02:56;;;;;;;17.60;12.20;;;8.20;99.90;;;;;;7355071;32;20235;-65
2022/05/06 06:06:58;;;;;;;15.85;11.38;;;8.40;99.90;;;;;;7355858;32;20127;-61
2022/05/06 06:11:01;;;;;;;13.70;9.60;;;8.60;99.90;;;;;;7358991;32;20126;-63
2022/05/06 06:15:03;;;;;;;15.23;9.48;;;8.80;99.90;;;;;;7357306;32;20126;-64
2022/05/06 06:19:05;;;;;;;15.15;10.07;;;9.00;99.90;;;;;;7351687;32;20129;-62
2022/05/06 06:23:07;;;;;;;14.40;10.60;;;9.30;99.90;;;;;;7347215;32;20617;-63
2022/05/06 06:27:08;;;;;;;15.32;10.75;;;9.60;99.90;;;;;;7352041;32;20126;-62
2022/05/06 06:31:10;;;;;;;17.25;11.55;;;9.80;99.90;;;;;;7360068;32;20126;-63
2022/05/06 06:35:12;;;;;;;14.40;11.27;;;10.10;99.90;;;;;;7358957;32;20157;-62
2022/05/06 06:39:13;;;;;;;14.87;10.43;;;10.50;99.90;;;;;;7358361;32;20102;-63
2022/05/06 06:43:15;;;;;;;17.20;11.02;;;11.00;99.90;;;;;;7363953;32;20129;-64
2022/05/06 06:47:16;;;;;;;15.30;10.15;;;11.40;99.90;;;;;;7351776;32;20209;-63
2022/05/06 06:51:18;;;;;;;20.23;10.43;;;11.80;99.90;;;;;;7357695;32;20543;-63
2022/05/06 06:55:21;;;;;;;13.95;9.88;;;12.20;99.90;;;;;;7348539;32;20158;-63
2022/05/06 06:59:22;;;;;;;18.42;10.30;;;12.80;99.90;;;;;;7355690;32;20511;-62
2022/05/06 07:03:24;;;;;;;16.48;9.55;;;13.20;99.90;;;;;;7355049;32;20144;-63
2022/05/06 07:11:56;;;;;;;15.07;10.68;;;13.90;99.90;;;;;;7367696;32;20108;-62
2022/05/06 07:15:58;;;;;;;12.80;8.68;;;14.30;99.90;;;;;;7366066;32;20186;-65
2022/05/06 07:20:00;;;;;;;15.85;9.77;;;14.60;99.90;;;;;;7359571;32;20953;-62
2022/05/06 07:24:02;;;;;;;12.77;9.57;;;14.70;99.90;;;;;;7358897;32;20115;-61
2022/05/06 07:28:05;;;;;;;15.15;10.82;;;15.20;99.90;;;;;;7362389;32;20647;-63
2022/05/06 07:32:07;;;;;;;15.90;10.75;;;15.70;99.90;;;;;;7361671;32;20099;-64
2022/05/06 07:36:08;;;;;;;13.45;9.93;;;16.20;99.90;;;;;;7348078;32;20111;-64
2022/05/06 07:40:10;;;;;;;12.43;9.52;;;16.40;99.90;;;;;;7363263;32;20111;-64
2022/05/06 07:44:12;;;;;;;14.87;10.20;;;16.30;99.90;;;;;;7362344;32;20103;-63
2022/05/06 07:48:14;;;;;;;18.30;10.70;;;15.90;99.90;;;;;;7359442;32;20100;-62
2022/05/06 07:52:16;;;;;;;12.10;10.25;;;15.90;99.90;;;;;;7361701;32;20179;-63
2022/05/06 07:56:19;;;;;;;14.15;9.75;;;15.60;99.90;;;;;;7361238;32;20125;-64
2022/05/06 08:00:24;;;;;;;12.68;9.48;;;15.50;99.90;;;;;;7355491;32;20132;-63
2022/05/06 08:04:36;;;;;;;17.73;10.27;;;15.50;99.90;;;;;;7231510;32;20131;-63
2022/05/06 08:08:37;;;;;;;12.90;9.60;;;15.60;99.90;;;;;;7223862;32;20774;-64
2022/05/06 08:12:39;;;;;;;18.33;10.68;;;15.70;99.90;;;;;;7228961;32;20108;-63
2022/05/06 08:16:41;;;;;;;19.87;11.07;;;15.80;99.90;;;;;;7218550;32;20143;-64
2022/05/06 08:20:43;;;;;;;13.93;10.60;;;15.90;99.90;;;;;;7226539;32;20132;-63
2022/05/06 08:24:45;;;;;;;20.25;11.05;;;16.10;99.90;;;;;;7232748;32;20568;-63
2022/05/06 08:29:06;;;;;;;16.40;10.85;;;16.30;99.90;;;;;;7227521;32;20148;-63
2022/05/06 08:33:08;;;;;;;14.75;11.18;;;16.90;99.90;;;;;;7230163;32;20588;-64
2022/05/06 08:37:10;;;;;;;14.18;11.82;;;17.70;99.90;;;;;;7232123;32;20117;-65
2022/05/06 08:41:12;;;;;;;18.48;11.77;;;18.80;99.90;;;;;;7230372;32;20201;-65
2022/05/06 08:53:59;;;;;;;17.25;10.18;;;21.40;99.90;;;;;;7232007;32;20157;-63
2022/05/06 08:58:01;;;;;;;17.73;10.70;;;21.80;99.90;;;;;;7226207;32;20531;-63
2022/05/06 09:02:07;;;;;;;11.70;9.73;;;22.30;92.20;;;;;;7284993;32;20141;-63
2022/05/06 09:06:30;;;;;;;16.98;10.30;;;23.00;94.30;;;;;;7357035;32;20100;-63
2022/05/06 09:10:32;;;;;;;17.23;8.57;;;23.50;90.40;;;;;;7362322;32;20123;-63
2022/05/06 09:19:11;;;;;;;13.93;9.07;;;24.10;80.00;;;;;;7352954;32;20196;-64
2022/05/06 09:23:21;;;;;;;14.05;9.88;;;24.20;78.50;;;;;;7352866;32;20149;-65
2022/05/06 09:27:23;;;;;;;12.80;9.85;;;24.40;78.40;;;;;;7357700;32;20135;-64
2022/05/06 09:31:25;;;;;;;16.48;12.25;;;24.00;73.90;;;;;;7354718;32;20107;-64
2022/05/06 09:35:30;;;;;;;19.67;12.35;;;24.10;73.20;;;;;;7361229;32;20656;-65
2022/05/06 09:39:32;;;;;;;17.27;11.40;;;24.10;75.50;;;;;;7358273;32;20579;-63
2022/05/06 09:43:34;;;;;;;28.27;14.80;;;24.10;80.50;;;;;;7347614;32;20256;-63
2022/05/06 09:47:37;;;;;;;18.02;13.07;;;23.40;76.60;;;;;;7359074;32;20211;-63
2022/05/06 09:51:39;;;;;;;23.27;12.60;;;23.20;83.70;;;;;;7349082;32;20126;-64
2022/05/06 09:55:46;;;;;;;18.08;12.45;;;23.70;78.50;;;;;;7346104;32;20952;-63
2022/05/06 09:59:48;;;;;;;22.90;14.13;;;23.80;76.40;;;;;;7362181;32;20211;-64
2022/05/06 10:03:52;;;;;;;19.37;15.73;;;24.00;74.30;;;;;;7358666;32;20110;-65
2022/05/06 10:08:14;;;;;;;24.65;19.05;;;22.70;77.20;;;;;;7356305;32;20133;-64
2022/05/06 10:12:17;;;;;;;25.40;18.27;;;22.00;88.70;;;;;;7358782;32;20110;-63
2022/05/06 10:16:19;;;;;;;29.37;19.52;;;22.80;80.70;;;;;;7354326;32;20102;-63
2022/05/06 10:20:36;;;;;;;26.42;19.08;;;22.80;81.20;;;;;;7356661;32;20753;-63
2022/05/06 10:24:39;;;;;;;;;;;22.40;77.80;;;;;;7357202;32;20245;-63
2022/05/06 10:33:03;;;;;;;27.37;18.30;;;23.10;80.10;;;;;;7353397;32;20133;-64
2022/05/06 10:37:14;;;;;;;25.23;19.60;;;23.10;83.00;;;;;;7360750;32;20479;-65
2022/05/06 10:41:22;;;;;;;25.42;20.70;;;23.50;75.10;;;;;;7356914;32;20107;-63
2022/05/06 10:45:30;;;;;;;24.33;19.62;;;23.50;75.40;;;;;;7360995;32;20230;-64
2022/05/06 10:49:38;;;;;;;28.12;20.33;;;23.10;76.20;;;;;;7364810;32;20213;-65
2022/05/06 10:53:40;;;;;;;26.17;20.83;;;23.20;78.90;;;;;;7354061;32;20112;-65
2022/05/06 10:57:53;;;;;;;25.12;20.25;;;23.40;75.80;;;;;;7366569;32;20107;-64
2022/05/06 11:02:10;;;;;;;28.85;22.13;;;23.20;78.60;;;;;;7313490;32;20379;-63
2022/05/06 11:06:11;;;;;;;24.00;21.25;;;22.40;83.10;;;;;;7233750;32;20215;-65
2022/05/06 11:10:16;;;;;;;28.02;22.48;;;21.10;84.10;;;;;;7238669;32;20521;-64
2022/05/06 11:14:18;;;;;;;28.25;22.15;;;20.60;89.00;;;;;;7234711;32;20304;-64
2022/05/06 11:18:20;;;;;;;26.87;21.20;;;20.10;91.50;;;;;;7230289;32;20551;-64
2022/05/06 11:22:23;;;;;;;25.85;18.00;;;19.80;92.30;;;;;;7231452;32;20223;-63
2022/05/06 11:26:30;;;;;;;26.83;19.62;;;19.50;92.90;;;;;;7239083;32;20181;-65
2022/05/06 11:30:32;;;;;;;21.23;18.67;;;19.30;92.90;;;;;;7235210;32;20104;-62
2022/05/06 11:34:34;;;;;;;24.67;19.30;;;19.00;94.40;;;;;;7227454;32;20266;-64
2022/05/06 11:38:37;;;;;;;26.25;19.20;;;18.90;97.10;;;;;;7226601;32;20121;-62
2022/05/06 11:42:40;;;;;;;22.17;19.65;;;18.80;98.90;;;;;;7237634;32;20917;-63
2022/05/06 11:51:23;;;;;;;23.25;20.00;;;19.10;99.80;;;;;;7226213;32;20108;-64
2022/05/06 11:55:26;;;;;;;19.48;17.37;;;19.60;98.90;;;;;;7278345;32;22621;-63
2022/05/06 11:59:29;;;;;;;19.23;16.10;;;19.80;99.90;;;;;;7232191;32;20326;-57
2022/05/06 12:03:31;;;;;;;23.98;18.10;;;19.70;99.20;;;;;;7232407;32;20208;-57
2022/05/06 12:07:52;;;;;;;21.50;17.87;;;19.30;99.60;;;;;;7233637;32;20212;-58
2022/05/06 12:12:07;;;;;;;19.05;15.02;;;19.50;97.70;;;;;;7230878;32;20128;-58
2022/05/06 12:16:11;;;;;;;19.73;15.77;;;19.80;99.40;;;;;;7232415;32;20116;-58
2022/05/06 12:20:33;;;;;;;22.77;16.52;;;20.10;96.40;;;;;;7228482;32;20117;-58
2022/05/06 12:24:43;;;;;;;26.15;16.55;;;20.40;96.90;;;;;;7273034;32;20135;-66
2022/05/06 12:28:48;;;;;;;18.17;14.90;;;20.50;97.90;;;;;;7233938;32;20771;-64
2022/05/06 12:33:11;;;;;;;20.75;17.02;;;20.90;98.90;;;;;;7224342;32;20869;-62
2022/05/06 12:37:18;;;;;;;18.95;14.63;;;21.10;94.10;;;;;;7219380;32;20522;-63
2022/05/06 12:41:24;;;;;;;19.97;15.73;;;21.00;94.50;;;;;;7231092;32;21116;-64
2022/05/06 12:45:26;;;;;;;21.03;15.67;;;20.70;94.20;;;;;;7231360;32;21855;-63
2022/05/06 12:49:39;;;;;;;20.02;16.87;;;20.60;93.50;;;;;;7233527;32;20143;-64
2022/05/06 12:53:41;;;;;;;20.35;15.18;;;20.70;92.00;;;;;;7227313;32;20155;-63
2022/05/06 12:57:44;;;;;;;17.77;15.02;;;20.40;93.90;;;;;;7226190;32;20108;-64
2022/05/06 13:01:46;;;;;;;25.48;15.48;;;20.90;95.10;;;;;;7273751;32;20157;-65
2022/05/06 13:05:48;;;;;;;25.90;20.98;;;21.30;91.70;;;;;;7362424;32;20435;-64
2022/05/06 13:09:50;;;;;;;16.83;12.37;;;21.10;90.80;;;;;;7358451;32;20563;-63
2022/05/06 13:13:52;;;;;;;16.62;13.73;;;21.30;93.20;;;;;;7359741;32;20209;-63
2022/05/06 13:17:54;;;;;;;18.90;14.23;;;21.50;90.00;;;;;;7354837;32;20176;-65
2022/05/06 13:21:56;;;;;;;15.98;12.10;;;21.50;88.60;;;;;;7361359;32;20179;-61
2022/05/06 13:25:58;;;;;;;19.95;13.80;;;21.00;90.30;;;;;;7362775;32;20370;-64
2022/05/06 13:30:00;;;;;;;19.45;13.73;;;20.90;91.20;;;;;;7360544;32;20123;-64
2022/05/06 13:34:02;;;;;;;18.77;14.65;;;20.70;91.50;;;;;;7352852;32;20100;-64
2022/05/06 13:38:04;;;;;;;17.83;14.27;;;20.50;91.70;;;;;;7360561;32;20107;-63
2022/05/06 13:42:06;;;;;;;17.67;12.43;;;20.30;93.30;;;;;;7359628;32;20121;-63
2022/05/06 13:46:07;;;;;;;22.77;15.60;;;20.10;94.60;;;;;;7354404;32;20130;-62
2022/05/06 13:50:09;;;;;;;20.85;14.63;;;19.90;93.40;;;;;;7361314;32;20106;-64
2022/05/06 13:54:12;;;;;;;21.65;14.90;;;20.00;93.00;;;;;;7353241;32;20545;-61
2022/05/06 14:02:34;;;;;;;18.85;14.68;;;19.70;93.30;;;;;;7371135;32;20504;-62
2022/05/06 14:06:35;;;;;;;28.20;19.75;;;19.70;93.80;;;;;;7363278;32;20505;-63
2022/05/06 14:10:37;;;;;;;19.75;15.07;;;19.50;94.90;;;;;;7363566;32;20121;-62
2022/05/06 14:14:39;;;;;;;20.60;13.43;;;19.40;94.00;;;;;;7353198;32;20206;-61
2022/05/06 14:18:40;;;;;;;28.12;21.42;;;19.40;93.60;;;;;;7346173;32;20587;-62
2022/05/06 14:22:48;;;;;;;20.70;16.45;;;19.40;94.80;;;;;;7342070;32;20599;-63
2022/05/06 14:26:50;;;;;;;20.23;15.70;;;19.70;93.60;;;;;;7354553;32;20131;-64
2022/05/06 14:30:52;;;;;;;16.95;14.13;;;20.00;93.90;;;;;;7354218;32;20192;-62
2022/05/06 14:35:15;;;;;;;22.55;16.50;;;20.30;94.10;;;;;;7360291;32;20115;-62
2022/05/06 14:39:15;;;;;;;20.02;15.27;;;20.40;91.70;;;;;;7350323;32;20130;-65
2022/05/06 14:43:17;;;;;;;19.52;13.57;;;20.90;93.70;;;;;;7346010;32;20153;-66
2022/05/06 14:47:19;;;;;;;20.20;15.07;;;21.10;92.90;;;;;;7356731;32;20568;-63
2022/05/06 14:51:20;;;;;;;20.70;14.75;;;21.20;90.50;;;;;;7357944;32;20115;-62
2022/05/06 14:55:22;;;;;;;19.73;15.27;;;21.50;90.80;;;;;;7360447;32;20126;-64
2022/05/06 14:59:24;;;;;;;18.80;16.45;;;21.80;90.20;;;;;;7352422;32;20111;-65
2022/05/06 15:03:27;;;;;;;22.77;17.00;;;21.60;86.90;;;;;;7360329;32;20132;-61
2022/05/06 15:07:29;;;;;;;15.40;13.70;;;21.70;83.30;;;;;;7361339;32;20563;-60
2022/05/06 15:11:31;;;;;;;15.65;14.00;;;21.70;84.10;;;;;;7349766;32;20111;-61
2022/05/06 15:15:32;;;;;;;20.45;15.63;;;21.50;83.40;;;;;;7359486;32;20201;-58
2022/05/06 15:19:34;;;;;;;23.62;16.08;;;21.40;83.70;;;;;;7362604;32;20099;-62
2022/05/06 15:23:45;;;;;;;24.00;16.02;;;21.30;85.00;;;;;;7360300;32;20103;-61
2022/05/06 15:27:47;;;;;;;21.87;16.23;;;21.40;81.80;;;;;;7361877;32;20429;-61
2022/05/06 15:31:48;;;;;;;31.00;18.60;;;21.10;86.40;;;;;;7364023;32;20111;-62
2022/05/06 15:35:50;;;;;;;57.08;17.73;;;21.00;82.10;;;;;;7365660;32;20833;-66
2022/05/06 15:39:52;;;;;;;21.83;15.25;;;21.00;86.90;;;;;;7362630;32;20129;-65
2022/05/06 15:43:54;;;;;;;21.45;16.25;;;21.20;86.20;;;;;;7365971;32;20107;-65
2022/05/06 15:47:57;;;;;;;20.02;15.57;;;21.00;81.70;;;;;;7356758;32;20107;-66
2022/05/06 15:51:59;;;;;;;19.77;13.52;;;20.80;84.30;;;;;;7368477;32;20526;-66
2022/05/06 15:56:01;;;;;;;19.85;13.07;;;20.90;83.60;;;;;;7360018;32;20153;-67
2022/05/06 16:00:03;;;;;;;18.25;12.23;;;20.90;84.10;;;;;;7361449;32;20221;-65
2022/05/06 16:04:06;;;;;;;15.55;11.57;;;20.70;83.20;;;;;;7364985;32;20106;-65
2022/05/06 16:08:08;;;;;;;14.23;10.55;;;20.80;86.80;;;;;;7358517;32;20208;-62
2022/05/06 16:12:10;;;;;;;14.70;11.32;;;20.60;83.20;;;;;;7362855;32;20197;-63
2022/05/06 16:16:14;;;;;;;15.70;10.77;;;20.60;84.30;;;;;;7361151;32;20802;-64
2022/05/06 16:20:17;;;;;;;16.83;10.23;;;20.60;84.60;;;;;;7360332;32;20507;-65
2022/05/06 16:24:19;;;;;;;14.07;10.20;;;20.50;81.80;;;;;;7359793;32;20159;-64
2022/05/06 16:28:21;;;;;;;15.18;10.93;;;20.40;81.60;;;;;;7352799;32;20110;-63
2022/05/06 16:32:23;;;;;;;18.90;11.63;;;20.50;83.30;;;;;;7348071;32;21344;-65
2022/05/06 16:41:00;;;;;;;16.52;10.07;;;20.40;79.60;;;;;;7324017;32;20749;-64
2022/05/06 16:45:02;;;;;;;15.05;10.60;;;20.40;78.70;;;;;;7360030;32;20111;-64
2022/05/06 16:49:04;;;;;;;14.73;10.15;;;20.40;79.50;;;;;;7360355;32;20134;-64
2022/05/06 16:53:06;;;;;;;12.30;8.45;;;20.20;78.70;;;;;;7358563;32;20180;-63
2022/05/06 16:57:07;;;;;;;13.32;9.23;;;20.10;82.10;;;;;;7357699;32;20507;-64
2022/05/06 17:01:09;;;;;;;13.07;7.95;;;20.00;77.70;;;;;;7362849;32;20103;-64
2022/05/06 17:05:11;;;;;;;9.75;6.97;;;19.80;80.90;;;;;;7357708;32;20272;-63
2022/05/06 17:09:12;;;;;;;12.93;8.13;;;19.90;81.00;;;;;;7352442;32;20107;-63
2022/05/06 17:13:14;;;;;;;10.75;7.15;;;19.80;80.10;;;;;;7363299;32;20130;-65
2022/05/06 17:17:15;;;;;;;13.18;8.65;;;19.70;81.30;;;;;;7359870;32;20585;-63
2022/05/06 17:21:17;;;;;;;11.27;8.25;;;19.70;80.60;;;;;;7357588;32;20138;-63
2022/05/06 17:25:20;;;;;;;9.77;6.95;;;19.60;80.20;;;;;;7354267;32;20111;-65
2022/05/06 17:29:21;;;;;;;11.05;8.30;;;19.40;84.80;;;;;;7362945;32;20131;-64
2022/05/06 17:33:23;;;;;;;9.68;7.12;;;19.30;85.60;;;;;;7358410;32;20169;-65
2022/05/06 17:37:26;;;;;;;11.52;8.25;;;19.20;89.70;;;;;;7354440;32;20205;-65
2022/05/06 17:41:28;;;;;;;15.57;8.82;;;19.20;87.60;;;;;;7358020;32;20206;-64
2022/05/06 17:45:29;;;;;;;12.23;7.80;;;19.00;88.00;;;;;;7357156;32;20687;-64
2022/05/06 17:49:33;;;;;;;13.52;9.05;;;19.00;90.50;;;;;;7358285;32;20537;-63
2022/05/06 17:53:34;;;;;;;9.85;7.45;;;18.90;90.20;;;;;;7357074;32;20510;-63
2022/05/06 17:57:36;;;;;;;10.45;6.78;;;18.80;90.40;;;;;;7361454;32;20666;-64
2022/05/06 18:01:37;;;;;;;8.75;5.57;;;18.50;92.00;;;;;;7361475;32;20130;-63
2022/05/06 18:05:39;;;;;;;9.02;6.12;;;18.40;94.60;;;;;;7364511;32;20696;-64
2022/05/06 18:09:41;;;;;;;11.80;7.28;;;18.20;95.30;;;;;;7345946;32;20237;-63
2022/05/06 18:13:43;;;;;;;7.55;5.57;;;18.20;94.60;;;;;;7360103;32;20483;-64
2022/05/06 18:17:46;;;;;;;9.10;5.20;;;18.00;97.40;;;;;;7358015;32;20103;-64
2022/05/06 18:21:47;;;;;;;7.45;4.62;;;17.80;99.90;;;;;;7364682;32;20344;-64
2022/05/06 18:25:49;;;;;;;7.18;3.90;;;17.50;99.90;;;;;;7365989;32;20201;-65
2022/05/06 18:29:51;;;;;;;5.65;3.60;;;17.20;99.90;;;;;;7341550;32;20739;-66
2022/05/06 18:33:53;;;;;;;5.97;3.30;;;16.90;99.90;;;;;;7357334;32;20211;-65
2022/05/06 18:37:54;;;;;;;7.12;3.70;;;16.70;99.90;;;;;;7342525;32;20774;-64
2022/05/06 18:41:56;;;;;;;6.57;3.80;;;16.40;99.90;;;;;;7365695;32;20108;-66
2022/05/06 18:45:58;;;;;;;5.18;3.78;;;16.10;99.90;;;;;;7355914;32;20102;-65
2022/05/06 18:50:00;;;;;;;6.45;4.20;;;15.80;99.90;;;;;;7353632;32;20888;-65
2022/05/06 18:54:07;;;;;;;7.18;3.70;;;15.70;99.90;;;;;;7360603;32;20198;-65
2022/05/06 18:58:10;;;;;;;6.53;3.90;;;15.40;99.90;;;;;;7357527;32;20355;-63
2022/05/06 19:02:12;;;;;;;7.50;4.87;;;15.10;99.90;;;;;;7349996;32;20107;-64
2022/05/06 19:06:14;;;;;;;11.43;4.75;;;14.90;99.90;;;;;;7358566;32;20115;-65
2022/05/06 19:10:15;;;;;;;13.15;4.53;;;14.70;99.90;;;;;;7360811;32;20126;-67
2022/05/06 19:14:17;;;;;;;11.63;4.87;;;14.50;99.90;;;;;;7362664;32;20103;-63
2022/05/06 19:18:18;;;;;;;10.40;5.18;;;14.30;99.90;;;;;;7357362;32;20705;-65
2022/05/06 19:26:40;;;;;;;9.38;4.72;;;14.00;99.90;;;;;;7359303;32;20202;-64
2022/05/06 19:30:42;;;;;;;8.60;4.75;;;13.80;99.90;;;;;;7355827;32;20126;-66
2022/05/06 19:34:44;;;;;;;10.57;4.37;;;13.70;99.90;;;;;;7365490;32;20203;-64
2022/05/06 19:38:46;;;;;;;9.75;5.25;;;13.50;99.90;;;;;;7364296;32;20766;-63
2022/05/06 19:42:48;;;;;;;10.02;5.45;;;13.40;99.90;;;;;;7368136;32;20292;-62
2022/05/06 19:46:50;;;;;;;11.27;5.57;;;13.20;99.90;;;;;;7365373;32;20230;-62
2022/05/06 19:50:53;;;;;;;9.88;5.10;;;13.10;99.90;;;;;;7371001;32;20122;-64
2022/05/06 19:54:55;;;;;;;7.78;5.07;;;12.90;99.90;;;;;;7365953;32;20791;-65
2022/05/06 19:58:57;;;;;;;9.95;4.97;;;12.80;99.90;;;;;;7360882;32;20129;-65
2022/05/06 20:03:01;;;;;;;10.95;5.80;;;12.80;99.90;;;;;;7366560;32;20649;-64
2022/05/06 20:07:03;;;;;;;10.75;5.85;;;12.70;99.90;;;;;;7367310;32;20130;-65
2022/05/06 20:11:05;;;;;;;10.82;5.50;;;12.50;99.90;;;;;;7370567;32;20102;-64
2022/05/06 20:15:10;;;;;;;9.15;5.70;;;12.30;99.90;;;;;;7349654;32;21031;-63
2022/05/06 20:19:11;;;;;;;10.68;6.20;;;12.40;99.90;;;;;;7358410;32;20472;-64
2022/05/06 20:23:13;;;;;;;12.13;7.03;;;12.10;99.90;;;;;;7361875;32;20129;-62
2022/05/06 20:27:15;;;;;;;9.27;6.78;;;12.00;99.90;;;;;;7363118;32;20758;-63
2022/05/06 20:31:17;;;;;;;8.80;6.90;;;12.00;99.90;;;;;;7360647;32;20146;-65
2022/05/06 20:35:19;;;;;;;11.50;7.53;;;11.80;99.90;;;;;;7367338;32;20126;-65
2022/05/06 20:39:20;;;;;;;8.95;7.10;;;11.80;99.90;;;;;;7356932;32;20245;-64
2022/05/06 20:43:22;;;;;;;10.63;7.95;;;11.70;99.90;;;;;;7357566;32;20110;-63
2022/05/06 20:47:25;;;;;;;12.50;8.13;;;11.60;99.90;;;;;;7363813;32;20157;-61
2022/05/06 20:51:26;;;;;;;10.75;6.90;;;11.60;99.90;;;;;;7356549;32;20159;-65
2022/05/06 20:55:28;;;;;;;10.20;7.00;;;11.50;99.90;;;;;;7357274;32;20261;-65
2022/05/06 20:59:34;;;;;;;19.77;8.13;;;11.30;99.90;;;;;;7363822;32;20667;-62
2022/05/06 21:03:38;;;;;;;14.10;8.25;;;11.20;99.90;;;;;;7356626;32;20136;-62
2022/05/06 21:07:40;;;;;;;16.00;8.50;;;11.10;99.90;;;;;;7358604;32;20707;-64
2022/05/06 21:16:03;;;;;;;13.25;7.95;;;10.90;99.90;;;;;;7354032;32;20139;-63
2022/05/06 21:20:08;;;;;;;13.25;9.13;;;10.80;99.90;;;;;;7348562;32;20096;-64
2022/05/06 21:24:09;;;;;;;12.43;8.38;;;10.80;99.90;;;;;;7347762;32;20560;-65
2022/05/06 21:28:11;;;;;;;12.10;8.07;;;10.80;99.90;;;;;;7364702;32;20313;-61
2022/05/06 21:32:16;;;;;;;14.57;8.30;;;10.60;99.90;;;;;;7355312;32;20098;-64
2022/05/06 21:36:17;;;;;;;12.25;8.20;;;10.60;99.90;;;;;;7362223;32;20431;-63
2022/05/06 21:40:19;;;;;;;12.93;9.40;;;10.50;99.90;;;;;;7358734;32;20134;-66
2022/05/06 21:44:21;;;;;;;15.40;9.25;;;10.50;99.90;;;;;;7354877;32;20145;-65
2022/05/06 21:48:23;;;;;;;16.77;9.90;;;10.50;99.90;;;;;;7358776;32;20970;-65
2022/05/06 21:52:25;;;;;;;16.90;9.80;;;10.40;99.90;;;;;;7357415;32;20464;-64